Time;durP1;ratioP1;P1;durP2;ratioP2;P2;SDS_P1;SDS_P2;PMS_P1;PMS_P2;Temp;Humidity;BMP_temperature;BMP_pressure;BME280_temperature;BME280_humidity;BME280_pressure;Samples;Min_cycle;Max_cycle;Signal;HPM_P1;HPM_P2
2022/06/06 00:00:49;;;;;;;15.45;11.57;;;15.90;99.90;;;;;;4992477;28;20196;-87
2022/06/06 00:03:17;;;;;;;12.60;10.95;;;15.90;99.90;;;;;;4977534;28;20049;-87
2022/06/06 00:05:45;;;;;;;13.30;11.57;;;15.90;99.90;;;;;;4993574;28;20081;-87
2022/06/06 00:08:14;;;;;;;14.38;11.88;;;15.80;99.90;;;;;;4977692;28;20061;-88
2022/06/06 00:10:42;;;;;;;17.05;12.55;;;15.80;99.90;;;;;;4975118;28;20076;-88
2022/06/06 00:13:09;;;;;;;16.38;13.20;;;15.80;99.90;;;;;;4997265;28;20736;-88
2022/06/06 00:15:38;;;;;;;13.68;11.43;;;15.80;99.90;;;;;;4977575;28;20082;-89
2022/06/06 00:18:06;;;;;;;14.10;11.40;;;15.70;99.90;;;;;;4981612;28;20041;-87
2022/06/06 00:20:32;;;;;;;17.75;12.55;;;15.70;99.90;;;;;;5004293;28;20489;-88
2022/06/06 00:22:59;;;;;;;17.95;13.48;;;15.70;1.00;;;;;;4976162;28;20081;-88
2022/06/06 00:25:27;;;;;;;18.55;13.50;;;15.70;1.00;;;;;;4974524;28;20124;-87
2022/06/06 00:27:55;;;;;;;16.50;13.95;;;15.70;1.00;;;;;;4978933;28;20419;-88
2022/06/06 00:30:21;;;;;;;18.17;13.73;;;15.70;1.00;;;;;;4992036;28;20039;-87
2022/06/06 00:35:31;;;;;;;17.80;14.00;;;15.70;1.00;;;;;;4976927;28;20049;-87
2022/06/06 00:37:57;;;;;;;16.10;13.32;;;15.60;1.00;;;;;;5005744;28;20038;-88
2022/06/06 00:40:26;;;;;;;13.55;12.15;;;15.70;1.00;;;;;;5004757;28;20226;-88
2022/06/06 00:42:52;;;;;;;13.90;11.60;;;15.60;1.00;;;;;;4978715;28;20078;-88
2022/06/06 00:45:25;;;;;;;14.18;12.13;;;15.70;1.00;;;;;;4976788;28;20127;-88
2022/06/06 00:48:11;;;;;;;14.75;11.82;;;15.60;1.00;;;;;;5007572;28;20077;-88
2022/06/06 00:51:01;;;;;;;14.25;12.05;;;15.70;1.00;;;;;;4990424;28;20046;-88
2022/06/06 00:53:33;;;;;;;13.38;11.25;;;15.70;1.00;;;;;;4974863;28;20145;-87
2022/06/06 00:56:14;;;;;;;13.68;11.77;;;15.60;22.60;;;;;;4958016;28;20528;-88
2022/06/06 00:58:40;;;;;;;12.95;11.55;;;15.60;12.40;;;;;;4990536;28;20081;-87
2022/06/06 01:01:07;;;;;;;14.48;11.75;;;15.60;35.20;;;;;;4976104;28;20295;-88
2022/06/06 01:03:38;;;;;;;14.60;11.80;;;15.50;40.20;;;;;;4974325;28;20073;-88
2022/06/06 01:06:06;;;;;;;13.48;11.63;;;15.50;50.70;;;;;;4992864;28;20042;-87
2022/06/06 01:08:41;;;;;;;12.93;10.68;;;15.50;79.50;;;;;;4990534;28;20109;-87
2022/06/06 01:11:10;;;;;;;12.57;10.65;;;15.50;88.20;;;;;;5003831;28;21159;-87
2022/06/06 01:13:38;;;;;;;11.40;10.20;;;15.50;96.30;;;;;;4990241;28;20058;-87
2022/06/06 01:16:45;;;;;;;13.98;10.90;;;15.50;97.80;;;;;;4975546;28;20059;-88
2022/06/06 01:19:41;;;;;;;14.25;10.95;;;15.50;99.90;;;;;;4988707;28;20075;-88
2022/06/06 01:22:43;;;;;;;12.82;10.75;;;15.50;99.90;;;;;;4975049;28;20081;-87
2022/06/06 01:25:24;;;;;;;12.50;11.07;;;15.50;99.90;;;;;;5002909;28;20050;-88
2022/06/06 01:28:04;;;;;;;15.57;10.40;;;15.40;99.90;;;;;;4993714;28;20034;-87
2022/06/06 01:30:41;;;;;;;13.38;10.65;;;15.40;99.90;;;;;;4974697;28;20548;-88
2022/06/06 01:33:14;;;;;;;12.80;10.05;;;15.40;99.90;;;;;;5007120;28;20402;-88
2022/06/06 01:35:43;;;;;;;12.73;9.98;;;15.40;99.90;;;;;;4975015;28;20143;-89
2022/06/06 01:38:11;;;;;;;11.25;8.95;;;15.30;99.90;;;;;;4977448;28;20057;-87
2022/06/06 01:40:53;;;;;;;18.13;9.23;;;15.30;98.60;;;;;;4997714;28;20465;-87
2022/06/06 01:43:26;;;;;;;10.77;8.90;;;15.20;99.90;;;;;;5004324;28;20461;-86
2022/06/06 01:46:00;;;;;;;10.15;8.35;;;15.30;99.90;;;;;;4992187;28;20297;-86
2022/06/06 01:48:34;;;;;;;8.80;7.90;;;15.10;96.80;;;;;;5005441;28;20586;-88
2022/06/06 01:51:09;;;;;;;12.65;8.95;;;15.10;68.10;;;;;;4989135;28;20042;-83
2022/06/06 01:53:37;;;;;;;8.82;7.93;;;15.00;81.20;;;;;;5004382;28;20045;-83
2022/06/06 01:56:05;;;;;;;9.43;7.60;;;15.00;74.70;;;;;;4968168;28;20753;-83
2022/06/06 01:58:32;;;;;;;10.43;7.22;;;15.00;84.00;;;;;;4989070;28;20058;-82
2022/06/06 02:00:58;;;;;;;8.02;7.13;;;15.00;50.40;;;;;;4988957;28;20045;-82
2022/06/06 02:03:24;;;;;;;8.55;6.53;;;15.00;53.60;;;;;;4974333;28;20052;-82
2022/06/06 02:05:50;;;;;;;8.52;6.55;;;15.00;62.70;;;;;;5005647;28;20046;-81
2022/06/06 02:08:16;;;;;;;7.75;6.60;;;15.00;13.50;;;;;;4971732;28;20128;-81
2022/06/06 02:10:43;;;;;;;8.02;7.13;;;14.90;19.00;;;;;;4975501;28;20042;-81
2022/06/06 02:13:09;;;;;;;6.78;6.07;;;14.90;18.60;;;;;;4971944;28;20038;-81
2022/06/06 02:15:36;;;;;;;9.32;6.50;;;14.80;18.30;;;;;;5002012;28;20042;-81
2022/06/06 02:18:03;;;;;;;10.98;6.57;;;14.90;1.00;;;;;;4963099;28;20054;-81
2022/06/06 02:20:31;;;;;;;7.57;6.25;;;14.80;15.30;;;;;;4996443;28;20039;-82
2022/06/06 02:22:58;;;;;;;7.82;6.47;;;14.70;2.50;;;;;;5007812;28;20578;-81
2022/06/06 02:25:25;;;;;;;9.07;6.40;;;14.70;4.60;;;;;;4975992;28;20057;-81
2022/06/06 02:27:51;;;;;;;7.75;6.75;;;14.70;25.80;;;;;;4996338;28;20045;-81
2022/06/06 02:30:25;;;;;;;10.18;6.90;;;14.70;32.00;;;;;;4976045;28;20050;-81
2022/06/06 02:32:51;;;;;;;8.43;6.15;;;14.70;25.10;;;;;;5007404;28;20046;-81
2022/06/06 02:35:25;;;;;;;6.75;5.18;;;14.60;29.30;;;;;;4981033;28;20038;-81
2022/06/06 02:37:52;;;;;;;6.68;5.57;;;14.60;1.00;;;;;;4994455;28;20476;-81
2022/06/06 02:40:20;;;;;;;7.47;5.82;;;14.50;1.00;;;;;;4992914;28;20046;-82
2022/06/06 02:42:49;;;;;;;7.53;6.13;;;14.60;1.00;;;;;;4977514;28;20089;-81
2022/06/06 02:45:16;;;;;;;6.63;5.40;;;14.60;15.20;;;;;;4992151;28;20098;-82
2022/06/06 02:47:47;;;;;;;7.90;5.78;;;14.60;14.90;;;;;;4975833;28;20485;-82
2022/06/06 02:50:18;;;;;;;7.07;5.60;;;14.50;12.10;;;;;;5003416;28;20061;-82
2022/06/06 02:52:44;;;;;;;7.72;6.25;;;14.50;5.10;;;;;;5004602;28;20054;-81
2022/06/06 02:55:12;;;;;;;8.40;5.80;;;14.60;59.30;;;;;;4974128;28;20096;-83
2022/06/06 02:57:45;;;;;;;7.13;6.40;;;14.60;31.30;;;;;;5005216;28;20156;-83
2022/06/06 03:00:14;;;;;;;7.95;6.60;;;14.50;16.00;;;;;;4994472;28;20046;-82
2022/06/06 03:02:40;;;;;;;9.68;6.53;;;14.40;21.80;;;;;;4993266;28;20082;-82
2022/06/06 03:05:08;;;;;;;10.48;6.93;;;14.40;48.00;;;;;;4976301;28;20035;-82
2022/06/06 03:07:54;;;;;;;9.10;7.70;;;14.50;60.80;;;;;;5007114;28;20049;-82
2022/06/06 03:10:37;;;;;;;11.98;7.65;;;14.40;80.50;;;;;;4978698;28;20377;-82
2022/06/06 03:13:09;;;;;;;11.02;8.00;;;14.40;91.30;;;;;;4976117;28;20042;-82
2022/06/06 03:22:27;;;;;;;9.63;7.40;;;14.40;99.90;;;;;;4914233;29;20074;-82
2022/06/06 03:25:12;;;;;;;9.35;7.13;;;14.40;99.90;;;;;;4994243;28;20197;-83
2022/06/06 03:27:44;;;;;;;7.75;6.82;;;14.50;99.90;;;;;;5008318;28;20577;-82
2022/06/06 03:30:46;;;;;;;9.30;6.90;;;14.40;99.90;;;;;;4988194;28;22066;-82
2022/06/06 03:33:54;;;;;;;9.00;7.07;;;14.40;99.90;;;;;;5004073;28;20104;-82
2022/06/06 03:36:39;;;;;;;7.70;6.65;;;14.40;99.90;;;;;;4974597;28;20224;-83
2022/06/06 03:39:12;;;;;;;8.55;6.40;;;14.30;99.90;;;;;;5006932;28;20038;-82
2022/06/06 03:42:10;;;;;;;7.88;6.30;;;14.40;99.90;;;;;;4977040;28;20094;-82
2022/06/06 03:44:51;;;;;;;8.50;5.90;;;14.40;99.90;;;;;;4993857;28;20060;-82
2022/06/06 03:47:45;;;;;;;7.85;6.00;;;14.50;99.90;;;;;;4978369;28;20497;-83
2022/06/06 03:50:26;;;;;;;6.75;5.90;;;14.50;99.90;;;;;;4989907;28;20089;-82
2022/06/06 03:53:04;;;;;;;7.72;5.95;;;14.50;99.90;;;;;;4995503;28;20397;-82
2022/06/06 03:55:51;;;;;;;6.85;5.80;;;14.50;99.90;;;;;;5006951;28;20069;-82
2022/06/06 03:58:20;;;;;;;7.22;5.97;;;14.50;99.90;;;;;;4992652;28;20421;-82
2022/06/06 04:00:47;;;;;;;7.18;5.63;;;14.60;99.90;;;;;;4994789;28;20378;-83
2022/06/06 04:03:15;;;;;;;7.30;5.80;;;14.50;99.90;;;;;;4986707;28;20388;-82
2022/06/06 04:05:42;;;;;;;6.80;5.53;;;14.60;99.90;;;;;;5007992;28;20050;-82
2022/06/06 04:08:10;;;;;;;6.85;5.40;;;14.60;99.90;;;;;;4995048;28;20108;-82
2022/06/06 04:11:15;;;;;;;6.55;5.45;;;14.50;99.90;;;;;;4978114;28;20584;-82
2022/06/06 04:14:10;;;;;;;7.00;5.35;;;14.60;99.90;;;;;;4986748;28;20498;-82
2022/06/06 04:16:36;;;;;;;;;;;14.50;99.90;;;;;;5003618;28;20046;-83
2022/06/06 04:19:29;;;;;;;4.95;4.45;;;14.60;99.90;;;;;;5007680;28;19921;-82
2022/06/06 04:22:22;;;;;;;5.82;3.88;;;14.60;99.90;;;;;;5007662;28;20177;-82
2022/06/06 04:25:12;;;;;;;5.65;4.70;;;14.50;99.90;;;;;;5006267;28;20456;-82
2022/06/06 04:27:38;;;;;;;7.53;6.00;;;14.50;99.90;;;;;;5010143;28;20081;-81
2022/06/06 04:30:28;;;;;;;7.30;6.13;;;14.60;99.90;;;;;;4974758;28;20610;-82
2022/06/06 04:33:05;;;;;;;10.75;6.90;;;14.60;99.90;;;;;;5007704;28;20050;-82
2022/06/06 04:35:49;;;;;;;11.23;7.63;;;14.60;99.90;;;;;;5004140;28;20057;-81
2022/06/06 04:38:19;;;;;;;7.88;6.18;;;14.60;99.90;;;;;;5005610;28;20576;-82
2022/06/06 04:41:13;;;;;;;6.25;5.15;;;14.50;99.90;;;;;;4973390;28;20046;-82
2022/06/06 04:43:59;;;;;;;6.85;5.15;;;14.40;99.90;;;;;;5008322;28;20088;-81
2022/06/06 04:46:31;;;;;;;6.45;5.25;;;14.40;99.90;;;;;;4977327;28;20127;-82
2022/06/06 04:48:57;;;;;;;7.72;5.78;;;14.40;99.90;;;;;;5002422;28;20563;-81
2022/06/06 04:51:25;;;;;;;9.82;6.18;;;14.40;99.90;;;;;;5005587;28;20438;-82
2022/06/06 04:53:54;;;;;;;8.45;6.38;;;14.40;99.90;;;;;;4976783;28;20175;-82
2022/06/06 04:56:21;;;;;;;10.77;7.30;;;14.40;99.90;;;;;;4978315;28;20313;-81
2022/06/06 04:58:50;;;;;;;9.10;7.13;;;14.40;99.90;;;;;;4978843;28;20104;-81
2022/06/06 05:01:16;;;;;;;10.85;7.32;;;14.40;99.90;;;;;;5001134;28;20465;-82
2022/06/06 05:03:42;;;;;;;8.80;6.28;;;14.50;99.90;;;;;;4977575;28;20050;-81
2022/06/06 05:06:11;;;;;;;8.75;6.22;;;14.40;99.60;;;;;;5006789;28;20109;-82
2022/06/06 05:09:15;;;;;;;8.57;6.57;;;14.30;58.70;;;;;;4979619;28;20521;-82
2022/06/06 05:11:52;;;;;;;11.65;7.63;;;14.30;90.20;;;;;;4974201;28;20061;-82
2022/06/06 05:14:51;;;;;;;13.90;8.90;;;14.40;88.60;;;;;;4991237;28;20046;-81
2022/06/06 05:17:42;;;;;;;17.10;9.95;;;14.20;21.50;;;;;;4977360;28;20050;-82
2022/06/06 05:20:58;;;;;;;14.77;9.82;;;14.30;98.20;;;;;;4998012;28;20084;-82
2022/06/06 05:23:48;;;;;;;14.30;8.82;;;14.20;60.90;;;;;;4951454;28;20329;-81
2022/06/06 05:26:13;;;;;;;19.15;9.77;;;14.20;58.00;;;;;;4981904;28;20053;-81
2022/06/06 05:28:54;;;;;;;17.13;10.50;;;14.20;1.00;;;;;;4989633;28;20051;-81
2022/06/06 05:31:50;;;;;;;17.02;9.95;;;14.20;8.70;;;;;;4973696;28;20598;-81
2022/06/06 05:34:45;;;;;;;15.20;9.48;;;14.30;3.50;;;;;;4991503;28;20054;-81
2022/06/06 05:37:15;;;;;;;11.93;7.70;;;14.30;1.00;;;;;;4989715;28;20042;-81
2022/06/06 05:40:17;;;;;;;12.52;7.65;;;14.20;1.00;;;;;;5003040;28;20096;-81
2022/06/06 05:42:46;;;;;;;12.32;8.10;;;14.20;1.00;;;;;;4974471;28;20148;-82
2022/06/06 05:45:30;;;;;;;12.23;8.13;;;14.20;1.00;;;;;;4972456;28;20054;-81
2022/06/06 05:48:19;;;;;;;14.95;9.00;;;14.00;99.90;;;;;;4973750;28;20061;-81
2022/06/06 05:51:30;;;;;;;16.90;9.43;;;14.10;99.90;;;;;;4998800;28;20038;-81
2022/06/06 05:54:11;;;;;;;19.48;11.27;;;14.10;99.90;;;;;;5003351;28;20590;-81
2022/06/06 05:57:01;;;;;;;15.57;10.13;;;14.00;1.00;;;;;;4970656;28;20173;-81
2022/06/06 05:59:46;;;;;;;16.77;10.98;;;14.00;99.90;;;;;;4991663;28;20042;-82
2022/06/06 06:02:32;;;;;;;16.42;10.60;;;14.10;99.90;;;;;;5006466;28;20100;-82
2022/06/06 06:05:29;;;;;;;16.40;11.10;;;14.10;99.90;;;;;;5003737;28;20774;-82
2022/06/06 06:08:44;;;;;;;18.85;11.27;;;14.10;99.90;;;;;;4973729;28;20350;-82
2022/06/06 06:11:39;;;;;;;16.75;10.73;;;14.10;99.90;;;;;;4999169;28;20118;-82
2022/06/06 06:14:11;;;;;;;19.83;11.52;;;14.10;99.90;;;;;;4973070;28;20181;-82
2022/06/06 06:16:44;;;;;;;18.75;10.80;;;14.20;99.90;;;;;;5004319;28;20053;-82
2022/06/06 06:19:14;;;;;;;16.00;11.25;;;14.20;99.90;;;;;;4987844;28;20072;-82
2022/06/06 06:22:02;;;;;;;15.20;10.50;;;14.30;99.90;;;;;;4999688;28;20050;-81
2022/06/06 06:24:31;;;;;;;16.15;10.55;;;14.30;99.90;;;;;;4977186;28;20050;-81
2022/06/06 06:26:58;;;;;;;15.90;10.45;;;14.40;99.90;;;;;;4972660;28;20457;-81
2022/06/06 06:29:25;;;;;;;14.18;10.18;;;14.40;99.90;;;;;;4991888;28;20031;-81
2022/06/06 06:32:31;;;;;;;16.80;10.65;;;14.50;99.90;;;;;;4989960;28;20385;-81
2022/06/06 06:35:06;;;;;;;14.98;9.98;;;14.60;99.90;;;;;;4986195;28;20449;-82
2022/06/06 06:37:50;;;;;;;12.88;9.30;;;14.60;99.90;;;;;;5001866;28;20302;-81
2022/06/06 06:40:34;;;;;;;14.85;9.40;;;14.60;1.00;;;;;;4990311;28;20038;-81
2022/06/06 06:43:37;;;;;;;11.77;8.50;;;14.70;1.00;;;;;;5006991;28;20285;-81
2022/06/06 06:46:12;;;;;;;10.15;6.95;;;14.50;99.90;;;;;;4981927;28;20591;-82
2022/06/06 06:48:51;;;;;;;10.32;7.28;;;14.50;99.90;;;;;;5006556;28;20049;-81
2022/06/06 06:51:32;;;;;;;12.07;7.30;;;14.60;1.00;;;;;;5006701;28;20069;-81
2022/06/06 06:54:10;;;;;;;10.68;7.13;;;14.60;1.00;;;;;;5001183;28;20043;-81
2022/06/06 06:57:04;;;;;;;9.32;6.88;;;14.70;99.90;;;;;;4988971;28;20074;-81
2022/06/06 06:59:48;;;;;;;10.45;7.20;;;14.60;1.00;;;;;;4993787;28;20045;-81
2022/06/06 07:08:53;;;;;;;10.45;7.60;;;15.00;99.90;;;;;;4977872;28;20046;-81
2022/06/06 07:11:39;;;;;;;12.40;7.32;;;15.20;1.00;;;;;;4984001;28;20046;-81
2022/06/06 07:14:30;;;;;;;9.77;6.90;;;15.30;99.90;;;;;;5004983;28;20047;-81
2022/06/06 07:16:59;;;;;;;11.57;7.57;;;15.20;99.90;;;;;;4976885;28;20113;-81
2022/06/06 07:19:46;;;;;;;10.40;7.68;;;15.20;99.90;;;;;;4979385;28;20054;-82
2022/06/06 07:22:19;;;;;;;11.40;7.68;;;15.30;99.90;;;;;;5009568;28;20042;-81
2022/06/06 07:24:55;;;;;;;10.60;7.57;;;15.40;99.90;;;;;;4987312;28;20045;-81
2022/06/06 07:27:21;;;;;;;10.90;7.07;;;15.80;99.90;;;;;;4982664;28;20042;-81
2022/06/06 07:29:46;;;;;;;10.15;7.25;;;16.30;99.90;;;;;;5011986;28;20500;-81
2022/06/06 07:32:39;;;;;;;11.55;7.55;;;16.60;99.90;;;;;;4982219;28;20058;-81
2022/06/06 07:35:24;;;;;;;11.65;7.53;;;16.60;68.80;;;;;;5013740;28;20050;-81
2022/06/06 07:38:35;;;;;;;7.53;6.05;;;16.30;99.90;;;;;;4981333;28;20046;-81
2022/06/06 07:41:29;;;;;;;8.52;5.80;;;15.90;99.90;;;;;;5010323;28;20510;-81
2022/06/06 07:44:31;;;;;;;8.63;5.72;;;16.00;99.90;;;;;;4997599;28;20043;-81
2022/06/06 07:47:05;;;;;;;6.00;5.10;;;16.20;17.90;;;;;;4997691;28;20184;-81
2022/06/06 07:50:12;;;;;;;6.18;5.00;;;16.30;1.00;;;;;;5011422;28;20042;-82
2022/06/06 07:52:50;;;;;;;7.68;4.78;;;16.30;99.90;;;;;;4964450;28;20191;-81
2022/06/06 07:55:26;;;;;;;7.57;4.90;;;16.50;80.80;;;;;;4984253;28;20461;-82
2022/06/06 07:58:05;;;;;;;5.80;4.47;;;16.60;49.80;;;;;;5013938;28;20046;-81
2022/06/06 08:00:32;;;;;;;7.75;4.03;;;16.70;54.10;;;;;;4983717;28;20625;-81
2022/06/06 08:03:09;;;;;;;8.52;4.50;;;16.40;93.70;;;;;;4982978;28;20050;-81
2022/06/06 08:06:08;;;;;;;7.53;5.35;;;16.60;48.60;;;;;;4981161;28;20033;-81
2022/06/06 08:08:52;;;;;;;5.75;4.22;;;16.60;99.90;;;;;;4997050;28;20043;-81
2022/06/06 08:11:39;;;;;;;7.68;4.43;;;17.20;1.00;;;;;;4997174;28;20381;-81
2022/06/06 08:14:20;;;;;;;9.35;5.38;;;17.20;83.30;;;;;;5011592;28;20965;-81
2022/06/06 08:17:30;;;;;;;9.40;4.68;;;17.30;1.00;;;;;;4997614;28;20101;-81
2022/06/06 08:20:36;;;;;;;6.95;5.00;;;17.50;10.90;;;;;;4978093;28;20046;-81
2022/06/06 08:23:07;;;;;;;7.80;4.53;;;17.30;1.00;;;;;;5015577;28;20046;-81
2022/06/06 08:25:36;;;;;;;7.82;4.68;;;16.90;1.00;;;;;;4980513;28;20061;-81
2022/06/06 08:28:03;;;;;;;7.60;5.10;;;16.70;1.00;;;;;;4998651;28;20057;-81
2022/06/06 08:30:32;;;;;;;8.45;5.20;;;16.60;1.00;;;;;;4981765;28;20091;-81
2022/06/06 08:33:03;;;;;;;7.22;4.90;;;16.60;1.00;;;;;;5015571;28;20053;-81
2022/06/06 08:35:54;;;;;;;7.57;5.25;;;16.30;54.10;;;;;;4981797;28;20399;-81
2022/06/06 08:38:33;;;;;;;10.10;5.32;;;16.60;95.80;;;;;;4978674;28;20556;-81
2022/06/06 08:41:20;;;;;;;7.75;4.60;;;16.90;11.30;;;;;;4980963;28;20120;-81
2022/06/06 08:44:28;;;;;;;7.80;4.15;;;16.70;12.30;;;;;;4980743;28;20064;-81
2022/06/06 08:47:14;;;;;;;6.10;3.90;;;16.70;1.00;;;;;;5013357;28;20046;-81
2022/06/06 08:53:02;;;;;;;7.70;3.78;;;16.70;1.00;;;;;;4996570;28;20446;-81
2022/06/06 08:56:05;;;;;;;8.23;3.80;;;17.80;99.90;;;;;;5010790;28;20046;-81
2022/06/06 08:58:39;;;;;;;6.22;3.08;;;18.40;1.00;;;;;;5012662;28;20453;-82
2022/06/06 09:01:08;;;;;;;;;;;18.80;99.90;;;;;;5011743;28;20077;-81
2022/06/06 09:04:06;;;;;;;4.20;2.67;;;19.20;99.90;;;;;;4980115;28;20004;-81
2022/06/06 09:06:54;;;;;;;7.65;3.38;;;19.50;99.90;;;;;;5009406;28;20077;-82
2022/06/06 09:09:58;;;;;;;5.80;2.63;;;19.50;99.90;;;;;;4986444;28;20033;-81
2022/06/06 09:12:58;;;;;;;3.92;2.33;;;19.70;99.90;;;;;;4996395;28;20045;-81
2022/06/06 09:15:36;;;;;;;5.40;2.88;;;19.80;99.90;;;;;;4963695;28;20417;-81
2022/06/06 09:18:15;;;;;;;4.45;2.10;;;19.70;99.90;;;;;;5001002;28;20038;-81
2022/06/06 09:20:50;;;;;;;5.50;2.22;;;19.60;99.90;;;;;;5006646;28;20050;-81
2022/06/06 09:23:16;;;;;;;4.95;2.03;;;19.80;99.90;;;;;;5014416;28;20548;-81
2022/06/06 09:26:01;;;;;;;5.93;2.00;;;20.00;99.90;;;;;;4981716;28;20128;-81
2022/06/06 09:28:30;;;;;;;3.22;2.00;;;19.20;99.90;;;;;;4984637;28;20053;-81
2022/06/06 09:31:35;;;;;;;5.90;2.10;;;18.70;99.90;;;;;;4996802;28;20081;-81
2022/06/06 09:34:39;;;;;;;6.25;2.50;;;18.10;99.90;;;;;;4980808;28;20053;-81
2022/06/06 09:37:29;;;;;;;5.55;2.50;;;17.90;99.90;;;;;;4984459;28;20073;-81
2022/06/06 09:40:06;;;;;;;3.80;2.10;;;17.80;99.90;;;;;;5005826;28;20101;-81
2022/06/06 09:43:00;;;;;;;4.63;2.40;;;18.10;99.90;;;;;;5006019;28;20547;-81
2022/06/06 09:45:35;;;;;;;4.32;2.30;;;18.80;99.90;;;;;;5000542;28;20048;-81
2022/06/06 09:48:19;;;;;;;4.53;1.90;;;19.10;99.90;;;;;;5013098;28;20580;-81
2022/06/06 09:50:48;;;;;;;3.45;1.83;;;19.00;99.90;;;;;;4973127;28;20421;-81
2022/06/06 09:53:32;;;;;;;5.88;2.08;;;19.10;99.90;;;;;;4980383;28;20053;-82
2022/06/06 09:59:57;;;;;;;4.07;1.90;;;19.30;99.90;;;;;;4983259;28;20112;-81
2022/06/06 10:02:59;;;;;;;5.00;2.40;;;18.90;99.90;;;;;;4995415;28;20054;-81
2022/06/06 10:05:59;;;;;;;5.22;2.15;;;19.10;99.90;;;;;;5008095;28;20046;-81
2022/06/06 10:09:02;;;;;;;5.13;1.40;;;18.80;99.90;;;;;;4981151;28;20048;-81
2022/06/06 10:11:43;;;;;;;2.97;1.52;;;18.30;99.90;;;;;;5011529;28;20046;-81
2022/06/06 10:14:27;;;;;;;2.60;1.38;;;18.10;99.90;;;;;;5000586;28;20050;-81
2022/06/06 10:17:01;;;;;;;3.85;1.60;;;18.40;99.90;;;;;;4992415;28;20038;-81
2022/06/06 10:19:55;;;;;;;4.82;1.60;;;18.70;99.90;;;;;;4980088;28;20498;-81
2022/06/06 10:22:44;;;;;;;6.30;1.40;;;18.70;99.90;;;;;;4982656;28;20569;-81
2022/06/06 10:25:25;;;;;;;3.80;1.65;;;18.70;99.90;;;;;;5010046;28;20038;-81
2022/06/06 10:27:57;;;;;;;8.20;2.03;;;19.50;99.90;;;;;;5011998;28;20165;-81
2022/06/06 10:30:25;;;;;;;4.15;1.50;;;19.90;99.90;;;;;;4996695;28;20131;-81
2022/06/06 10:33:06;;;;;;;3.60;1.70;;;20.30;99.90;;;;;;5000011;28;20192;-81
2022/06/06 10:35:35;;;;;;;3.83;1.58;;;20.80;99.90;;;;;;4971083;28;20085;-81
2022/06/06 10:38:21;;;;;;;4.57;1.52;;;20.40;99.90;;;;;;4998622;28;20486;-81
2022/06/06 10:40:49;;;;;;;5.18;1.38;;;19.60;99.90;;;;;;5008872;28;20047;-81
2022/06/06 10:43:24;;;;;;;4.72;1.42;;;19.50;99.90;;;;;;4985812;28;20055;-81
2022/06/06 10:45:57;;;;;;;3.60;1.73;;;20.10;99.90;;;;;;4998737;28;20050;-81
2022/06/06 10:48:52;;;;;;;5.43;1.80;;;20.60;99.90;;;;;;4988021;28;20180;-81
2022/06/06 10:51:45;;;;;;;4.43;1.92;;;20.70;99.90;;;;;;5016298;28;20658;-82
2022/06/06 10:54:26;;;;;;;4.20;1.60;;;20.60;99.90;;;;;;4984129;28;20050;-81
2022/06/06 10:57:10;;;;;;;3.72;1.60;;;20.40;99.90;;;;;;4985660;28;20088;-81
2022/06/06 10:59:42;;;;;;;3.15;1.70;;;19.60;99.90;;;;;;5000403;28;20117;-81
2022/06/06 11:02:26;;;;;;;4.07;1.80;;;19.50;99.90;;;;;;4984173;28;20072;-81
2022/06/06 11:05:23;;;;;;;4.53;2.10;;;20.70;99.90;;;;;;4996952;28;20121;-81
2022/06/06 11:07:58;;;;;;;6.15;1.70;;;19.80;99.90;;;;;;5014080;28;20049;-81
2022/06/06 11:10:47;;;;;;;3.05;1.80;;;19.40;99.90;;;;;;5013763;28;20053;-81
2022/06/06 11:13:15;;;;;;;3.83;1.90;;;19.00;99.90;;;;;;5013974;28;20042;-81
2022/06/06 11:16:09;;;;;;;3.67;1.90;;;18.70;99.90;;;;;;4985944;28;20050;-82
2022/06/06 11:18:59;;;;;;;4.60;1.98;;;18.90;99.90;;;;;;4998188;28;20143;-81
2022/06/06 11:21:46;;;;;;;4.28;1.83;;;20.00;99.90;;;;;;5002227;28;20053;-81
2022/06/06 11:24:27;;;;;;;2.47;1.55;;;20.40;99.90;;;;;;5009249;28;20046;-81
2022/06/06 11:27:14;;;;;;;5.07;1.48;;;20.20;96.00;;;;;;5003214;28;20185;-82
2022/06/06 11:30:19;;;;;;;4.43;1.60;;;20.20;95.30;;;;;;4981317;28;20112;-82
2022/06/06 11:33:22;;;;;;;3.03;1.48;;;20.50;99.90;;;;;;4977957;28;20137;-82
2022/06/06 11:36:10;;;;;;;4.07;1.45;;;20.50;98.50;;;;;;5006699;28;20050;-82
2022/06/06 11:38:51;;;;;;;5.22;1.77;;;20.40;99.90;;;;;;4983527;28;20080;-81
2022/06/06 11:41:46;;;;;;;5.30;1.80;;;19.90;99.90;;;;;;4983004;28;20054;-81
2022/06/06 11:44:15;;;;;;;5.80;2.25;;;18.90;99.90;;;;;;4987859;28;20038;-82
2022/06/06 11:47:07;;;;;;;3.30;2.30;;;18.20;99.90;;;;;;5003635;28;20639;-81
2022/06/06 11:49:57;;;;;;;4.15;2.20;;;18.40;99.90;;;;;;5000670;28;20038;-81
2022/06/06 11:52:43;;;;;;;5.50;2.40;;;18.90;99.90;;;;;;5008550;28;20617;-81
2022/06/06 11:55:40;;;;;;;3.85;1.73;;;19.50;99.90;;;;;;4998639;28;20107;-81
2022/06/06 11:58:37;;;;;;;2.05;1.30;;;20.50;99.90;;;;;;5010059;28;20050;-81
2022/06/06 12:01:36;;;;;;;3.85;1.88;;;20.80;99.90;;;;;;4977998;28;20256;-81
2022/06/06 12:04:37;;;;;;;3.25;1.40;;;21.00;99.90;;;;;;4983978;28;20452;-81
2022/06/06 12:07:18;;;;;;;5.93;1.70;;;20.30;82.10;;;;;;5004313;28;20162;-81
2022/06/06 12:09:53;;;;;;;4.68;1.60;;;20.20;99.90;;;;;;4984340;28;20478;-82
2022/06/06 12:12:19;;;;;;;3.17;1.42;;;19.90;99.90;;;;;;4978718;28;20042;-81
2022/06/06 12:15:15;;;;;;;4.85;1.60;;;19.90;99.70;;;;;;5012272;28;20469;-82
2022/06/06 12:18:16;;;;;;;3.53;1.40;;;19.60;95.60;;;;;;5009511;28;20037;-81
2022/06/06 12:21:16;;;;;;;4.15;1.55;;;19.70;99.90;;;;;;4998876;28;20128;-81
2022/06/06 12:23:44;;;;;;;3.65;1.50;;;20.00;99.90;;;;;;4997647;28;20034;-81
2022/06/06 12:26:45;;;;;;;3.80;1.67;;;20.40;99.90;;;;;;4984626;28;20046;-81
2022/06/06 12:29:23;;;;;;;2.97;1.23;;;20.80;99.90;;;;;;4998718;28;20038;-82
2022/06/06 12:32:16;;;;;;;3.40;1.38;;;20.10;44.00;;;;;;4989028;28;20050;-81
2022/06/06 12:35:07;;;;;;;4.07;1.10;;;19.90;48.70;;;;;;4993778;28;20049;-81
2022/06/06 12:37:51;;;;;;;5.07;1.10;;;19.60;49.50;;;;;;4980125;28;20234;-81
2022/06/06 12:40:29;;;;;;;3.17;1.17;;;19.20;14.10;;;;;;4975751;28;20077;-81
2022/06/06 12:43:07;;;;;;;2.58;1.20;;;18.90;41.90;;;;;;5006962;28;20054;-82
2022/06/06 12:46:03;;;;;;;2.95;1.10;;;19.00;26.40;;;;;;4992739;28;20085;-81
2022/06/06 12:48:49;;;;;;;5.07;1.20;;;18.80;60.60;;;;;;4998184;28;20050;-82
2022/06/06 12:51:55;;;;;;;2.92;1.20;;;18.90;74.20;;;;;;4970466;28;20089;-82
2022/06/06 12:57:38;;;;;;;5.35;1.38;;;18.60;77.30;;;;;;4996336;28;20049;-81
2022/06/06 13:00:13;;;;;;;3.35;1.30;;;18.40;99.90;;;;;;4996467;28;20305;-81
2022/06/06 13:03:32;;;;;;;5.35;1.25;;;18.20;99.90;;;;;;5000175;28;20050;-81
2022/06/06 13:06:02;;;;;;;3.03;1.25;;;17.90;99.90;;;;;;4922432;28;20038;-82
2022/06/06 13:09:03;;;;;;;3.08;1.30;;;17.70;99.90;;;;;;4983051;28;20129;-81
2022/06/06 13:12:02;;;;;;;6.68;1.73;;;17.50;99.90;;;;;;4980714;28;20453;-82
2022/06/06 13:14:30;;;;;;;6.05;2.08;;;17.20;99.90;;;;;;5010419;28;20042;-82
2022/06/06 13:17:14;;;;;;;5.60;1.90;;;17.50;99.90;;;;;;5008000;28;20072;-82
2022/06/06 13:20:01;;;;;;;3.73;2.07;;;17.70;99.90;;;;;;4998676;28;20397;-81
2022/06/06 13:22:33;;;;;;;3.25;2.00;;;17.60;99.90;;;;;;4983776;28;20855;-82
2022/06/06 13:25:17;;;;;;;3.95;2.25;;;17.50;99.90;;;;;;4998391;28;20069;-81
2022/06/06 13:27:59;;;;;;;4.07;2.17;;;17.50;99.90;;;;;;4997200;28;20156;-81
2022/06/06 13:30:30;;;;;;;2.42;2.15;;;17.40;99.90;;;;;;4999531;28;20715;-81
2022/06/06 13:33:14;;;;;;;3.58;2.20;;;17.30;1.00;;;;;;5000702;28;20046;-82
2022/06/06 13:35:49;;;;;;;4.63;2.38;;;17.20;99.90;;;;;;4992666;28;20573;-81
2022/06/06 13:38:21;;;;;;;;;;;17.10;1.00;;;;;;4982975;28;20045;-83
2022/06/06 13:41:00;;;;;;;5.60;2.90;;;16.90;99.90;;;;;;5006874;28;19925;-84
2022/06/06 13:43:44;;;;;;;6.28;2.80;;;16.70;1.00;;;;;;5008072;28;20054;-84
2022/06/06 13:46:15;;;;;;;4.55;2.97;;;16.40;1.00;;;;;;5010954;28;20045;-84
2022/06/06 13:48:57;;;;;;;5.22;2.75;;;16.30;41.60;;;;;;4990427;28;20042;-84
2022/06/06 13:52:06;;;;;;;3.95;2.80;;;16.30;1.00;;;;;;5007043;28;20038;-83
2022/06/06 13:54:36;;;;;;;5.38;3.50;;;16.20;1.00;;;;;;4981652;28;20386;-84
2022/06/06 13:57:20;;;;;;;8.27;3.63;;;16.00;99.90;;;;;;4991862;28;20052;-84
2022/06/06 14:00:10;;;;;;;5.72;3.42;;;16.00;99.90;;;;;;4984060;28;20688;-83
2022/06/06 14:02:45;;;;;;;5.10;3.70;;;15.90;99.90;;;;;;5013235;28;20252;-83
2022/06/06 14:05:49;;;;;;;6.25;3.72;;;15.80;99.90;;;;;;4993094;28;20420;-83
2022/06/06 14:08:18;;;;;;;5.28;3.38;;;15.70;99.90;;;;;;4959481;28;20061;-83
2022/06/06 14:11:01;;;;;;;3.78;3.13;;;15.60;99.90;;;;;;4980404;28;20088;-82
2022/06/06 14:13:51;;;;;;;5.75;3.80;;;15.80;99.90;;;;;;4981936;28;20037;-82
2022/06/06 14:16:19;;;;;;;4.82;3.92;;;15.60;99.90;;;;;;4990618;28;20202;-82
2022/06/06 14:18:46;;;;;;;4.88;3.70;;;15.70;99.90;;;;;;4985321;28;20062;-82